Current Conditions

Updated: 20-Jun-2018 12:24 PM  
Summary / Temperature Wind Rain






Feels like: 94°F

1-hour difference
3.6°F 3.6°F warmer than last hour.

24-hour difference
4.9°F4.9°F warmer than yesterday at this time.

  Today Yesterday
High: 92.1°F
12:21 PM
94.0°F
4:54 PM
Low: 63.1°F
6:01 AM
60.3°F
5:36 AM
Wind from NW NW
1.0
Gust:  1.0 mph
0 Beaufort - Light Air

Today: 6.9 - 5:44 AM
Month: 13.0 mph - Jun 9
Rain Today: 0.00 in
Current Rate (/hr): 0.000 in
Max Rate (/hr):
Rain Yesterday: 0.00 in
Storm Rain: 0.00 in
This Month: 0.00 in
Season Total: 6.40 in
Last Rain Event: 64 days ago
Humidity / Barometer Sun / Moon
Humidity: 41 Decreased 7.0% in the last hour.
Dew Point: 65.0°F Decreased 1.3°F in the last hour.
Barometer: 29.880 inHg  
Baro Trend: Steady
Sunrise: 5:39 AM
Sunset: 8:17 PM
Moonrise: 1:20 PM
Moonset: 1:13 AM
Sky Conditions UV Index
Summary: Clear
Visibility: 10 miles
Clouds: None
KVIS - 11:56 AM PDT
Current: 12.0  Extreme 
Wednesday: 11.1  Extreme 
Thursday: 10.7  Very High 
Air Quality Fire Danger
 Moderate 
Ozone 53 ppb
PM 2.5 18 μg/m3
12:20 PM PDT
Current: 36  Low 

Local Alerts Local Forecast
Local NWS Alerts
Today

Sunny

High 99
Tonight

Clear

Low 61
Thu

Sunny

High 100
Thu night

Clear

Low 62
Fri

Sunny

High 101
Fri night

Clear

Low 65
Sat

Sunny

High 103

Local Radar Local Satellite Neighborhood Cam Sky Cam
Local Radar Local Satellite Neighborhood Cam Sky Cam


Nearby Personal Stations

Weather Underground PWS KCAEXETE7     Weather Underground PWS KCAEXETE6     Weather Underground PWS KCAEXETE11

Nearby Airport Stations

KVIS - Visalia, California, USA
Distance from station: W 14mi, 23km
Updated: Wed, 20-Jun-2018 11:56am PDT
Clear
Clear
 Wind from SW
Wind: SW 6 mph , 9 km/h
Temperature: 86°F , 30°C
Heat Index: 87°F , 31°C
Dew Point: 63°F , 17°C
Humidity: 46%
Barometer: 29.93 inHg , 1013.5 hPa
Clouds: Clear
Visibility: 10 miles , 16 km
2018/06/20 18:56 KVIS 201856Z AUTO 22005KT 10SM CLR 30/17 A2993 RMK AO2 SLP138 T03000172
KPTV - Porterville, California, USA
Distance from station: SSE 19mi, 31km
Updated: Wed, 20-Jun-2018 11:56am PDT
Clear
Clear
 Wind from WSW
Wind: WSW 5 mph , 7 km/h
Temperature: 88°F , 31°C
Dew Point: 59°F , 15°C
Humidity: 38%
Barometer: 29.94 inHg , 1013.9 hPa
Clouds: Clear
Visibility: 10 miles , 16 km
2018/06/20 18:56 KPTV 201856Z AUTO 25004KT 10SM CLR 31/15 A2994 RMK AO2 SLP142 T03060150

Metar display script from Saratoga-Weather.org



Visitor Map